Time;durP1;ratioP1;P1;durP2;ratioP2;P2;SDS_P1;SDS_P2;PMS_P1;PMS_P2;Temp;Humidity;BMP_temperature;BMP_pressure;BME280_temperature;BME280_humidity;BME280_pressure;Samples;Min_cycle;Max_cycle;Signal;HPM_P1;HPM_P2
2022/10/14 00:01:05;;;;;;;175.98;25.65;;;11.80;99.90;;;;;;6210658;23;20000;-71
2022/10/14 00:03:31;;;;;;;93.13;22.75;;;11.70;99.90;;;;;;6209893;23;20005;-71
2022/10/14 00:05:57;;;;;;;106.90;23.77;;;11.80;99.90;;;;;;6212395;23;20015;-71
2022/10/14 00:08:23;;;;;;;130.52;25.10;;;11.80;99.90;;;;;;6212559;23;20402;-71
2022/10/14 00:10:49;;;;;;;133.80;24.50;;;11.70;99.90;;;;;;6212908;23;20001;-72
2022/10/14 00:13:15;;;;;;;104.13;26.67;;;11.70;99.90;;;;;;6212768;23;20015;-71
2022/10/14 00:15:41;;;;;;;111.95;25.67;;;11.70;99.90;;;;;;6212304;23;20076;-71
2022/10/14 00:18:08;;;;;;;180.18;26.27;;;11.70;99.90;;;;;;6211884;23;20319;-71
2022/10/14 00:20:34;;;;;;;109.18;24.33;;;11.80;99.90;;;;;;6212123;23;19997;-71
2022/10/14 00:22:59;;;;;;;100.60;24.80;;;11.60;99.90;;;;;;6212288;23;20005;-72
2022/10/14 00:25:26;;;;;;;122.22;22.92;;;11.70;99.90;;;;;;6212713;23;20025;-71
2022/10/14 00:27:52;;;;;;;108.10;23.45;;;11.70;99.90;;;;;;6212577;23;19996;-72
2022/10/14 00:30:18;;;;;;;130.57;24.00;;;11.60;99.90;;;;;;6212700;23;20000;-71
2022/10/14 00:32:44;;;;;;;98.75;24.00;;;11.40;99.90;;;;;;6211608;23;20079;-71
2022/10/14 00:35:09;;;;;;;141.80;23.00;;;11.50;99.90;;;;;;6212707;23;20001;-71
2022/10/14 00:37:35;;;;;;;156.95;22.98;;;11.60;99.90;;;;;;6212363;23;19997;-71
2022/10/14 00:40:01;;;;;;;120.13;22.45;;;11.50;99.90;;;;;;6212230;23;20134;-71
2022/10/14 00:42:26;;;;;;;103.63;20.10;;;11.50;99.90;;;;;;6212140;23;20008;-72
2022/10/14 00:45:01;;;;;;;78.18;22.83;;;11.50;99.90;;;;;;6208781;23;20426;-71
2022/10/14 00:47:28;;;;;;;81.97;21.33;;;11.50;99.90;;;;;;6211452;23;20024;-71
2022/10/14 00:49:54;;;;;;;156.98;21.30;;;11.50;99.90;;;;;;6212363;23;20043;-71
2022/10/14 00:52:22;;;;;;;187.07;23.38;;;11.60;99.90;;;;;;6212280;23;20009;-71
2022/10/14 00:54:55;;;;;;;71.88;22.23;;;11.50;99.90;;;;;;6212282;23;20398;-72
2022/10/14 00:57:22;;;;;;;176.65;22.42;;;11.40;99.90;;;;;;6212111;23;20008;-71
2022/10/14 00:59:48;;;;;;;80.35;23.55;;;11.40;99.90;;;;;;6212055;23;20421;-71
2022/10/14 01:02:13;;;;;;;87.07;20.92;;;11.20;99.90;;;;;;6211825;23;20005;-72
2022/10/14 01:04:41;;;;;;;96.10;22.02;;;11.40;99.90;;;;;;6211644;23;20561;-71
2022/10/14 01:07:41;;;;;;;120.85;21.75;;;11.30;99.90;;;;;;6212331;23;20011;-71
2022/10/14 01:10:23;;;;;;;74.10;21.38;;;11.40;99.90;;;;;;6212476;23;20036;-71
2022/10/14 01:12:51;;;;;;;77.10;19.10;;;11.30;99.90;;;;;;6211935;23;20022;-71
2022/10/14 01:15:36;;;;;;;62.00;19.95;;;11.20;99.90;;;;;;6211472;23;20350;-72
2022/10/14 01:18:13;;;;;;;;;;;11.10;99.90;;;;;;6212417;23;20001;-71
2022/10/14 01:20:57;;;;;;;67.68;18.92;;;11.20;99.90;;;;;;6211404;23;20249;-71
2022/10/14 01:23:53;;;;;;;113.18;21.95;;;11.10;99.90;;;;;;6211542;23;20334;-71
2022/10/14 01:26:27;;;;;;;53.95;20.02;;;11.10;99.90;;;;;;6212160;23;20103;-71
2022/10/14 01:29:08;;;;;;;86.78;24.33;;;11.20;99.90;;;;;;6211892;23;20054;-71
2022/10/14 01:31:37;;;;;;;75.05;22.58;;;11.10;99.90;;;;;;6211304;23;20064;-71
2022/10/14 01:34:08;;;;;;;60.38;20.48;;;11.20;99.90;;;;;;6211966;23;20004;-71
2022/10/14 01:36:45;;;;;;;80.28;20.70;;;11.00;99.90;;;;;;6211782;23;20117;-71
2022/10/14 01:39:29;;;;;;;68.13;23.20;;;11.10;99.90;;;;;;6211924;23;20001;-71
2022/10/14 01:42:07;;;;;;;73.13;23.20;;;11.00;99.90;;;;;;6211693;23;20012;-71
2022/10/14 01:44:36;;;;;;;64.43;22.20;;;11.00;99.90;;;;;;6211251;23;20411;-71
2022/10/14 01:47:03;;;;;;;66.82;22.67;;;11.00;99.90;;;;;;6181753;23;20009;-71
2022/10/14 01:49:38;;;;;;;64.88;22.73;;;11.00;99.90;;;;;;6181377;23;20059;-71
2022/10/14 01:52:08;;;;;;;81.32;22.98;;;11.00;99.90;;;;;;6181859;23;19997;-71
2022/10/14 01:54:38;;;;;;;121.05;29.02;;;11.10;99.90;;;;;;6181384;23;20315;-71
2022/10/14 01:57:08;;;;;;;86.85;28.17;;;11.00;99.90;;;;;;6181868;23;20419;-71
2022/10/14 01:59:35;;;;;;;72.75;26.88;;;11.00;99.90;;;;;;6180836;23;20004;-71
2022/10/14 02:02:01;;;;;;;95.75;27.25;;;11.00;99.90;;;;;;6181522;23;20005;-71
2022/10/14 02:04:26;;;;;;;80.35;26.60;;;11.00;99.90;;;;;;6181340;23;20063;-71
2022/10/14 02:07:13;;;;;;;82.32;26.42;;;11.00;99.90;;;;;;6181554;23;20023;-71
2022/10/14 02:10:15;;;;;;;98.15;26.98;;;11.00;99.90;;;;;;6181083;23;20004;-71
2022/10/14 02:13:05;;;;;;;91.97;25.00;;;11.10;99.90;;;;;;6181011;23;20610;-71
2022/10/14 02:15:54;;;;;;;109.15;26.63;;;11.00;99.90;;;;;;6181325;23;20013;-71
2022/10/14 02:18:38;;;;;;;124.72;27.45;;;11.10;99.90;;;;;;6181443;23;20008;-71
2022/10/14 02:21:16;;;;;;;97.00;29.13;;;11.20;99.90;;;;;;6181667;23;20383;-71
2022/10/14 02:23:50;;;;;;;92.25;29.33;;;11.10;99.90;;;;;;6180917;23;20281;-71
2022/10/14 02:26:17;;;;;;;82.32;29.02;;;11.10;99.90;;;;;;6181682;23;20008;-70
2022/10/14 02:28:44;;;;;;;82.28;30.17;;;11.20;99.90;;;;;;6180080;23;20005;-70
2022/10/14 02:31:14;;;;;;;130.88;33.28;;;11.20;99.90;;;;;;6181643;23;20096;-71
2022/10/14 02:33:43;;;;;;;84.25;32.63;;;11.20;99.90;;;;;;6180896;23;20105;-71
2022/10/14 02:36:13;;;;;;;87.50;29.92;;;11.20;99.90;;;;;;6181498;23;20012;-71
2022/10/14 02:38:40;;;;;;;134.90;32.53;;;11.20;99.90;;;;;;6181118;23;20001;-71
2022/10/14 02:41:10;;;;;;;112.43;30.13;;;11.10;99.90;;;;;;6181447;23;20001;-71
2022/10/14 02:43:37;;;;;;;91.97;33.83;;;11.30;99.90;;;;;;6180610;23;20069;-71
2022/10/14 02:46:03;;;;;;;100.00;34.10;;;11.30;99.90;;;;;;6198774;23;20024;-71
2022/10/14 02:48:29;;;;;;;92.85;31.48;;;11.30;99.90;;;;;;6210792;23;20000;-71
2022/10/14 02:50:54;;;;;;;94.10;33.42;;;11.20;99.90;;;;;;6210995;23;20005;-71
2022/10/14 02:53:20;;;;;;;109.15;34.25;;;11.30;99.90;;;;;;6211174;23;20049;-71
2022/10/14 02:55:45;;;;;;;122.30;33.67;;;12.30;99.90;;;;;;6210963;23;20443;-71
2022/10/14 02:58:11;;;;;;;105.25;35.33;;;11.30;99.90;;;;;;6210636;23;20000;-71
2022/10/14 03:00:36;;;;;;;109.50;37.05;;;11.40;99.90;;;;;;6182839;23;20004;-71
2022/10/14 03:03:02;;;;;;;118.03;38.33;;;11.30;99.90;;;;;;6208396;23;20011;-71
2022/10/14 03:05:28;;;;;;;116.35;37.33;;;11.30;99.90;;;;;;6208266;23;20068;-71
2022/10/14 03:07:53;;;;;;;107.45;35.53;;;11.40;99.90;;;;;;6208637;23;20079;-71
2022/10/14 03:10:19;;;;;;;135.15;39.97;;;11.40;99.90;;;;;;6209164;23;20095;-71
2022/10/14 03:12:45;;;;;;;118.93;36.50;;;10.80;99.90;;;;;;6208655;23;20398;-71
2022/10/14 03:15:10;;;;;;;114.28;36.47;;;11.40;99.90;;;;;;6209116;23;19997;-71
2022/10/14 03:17:36;;;;;;;131.13;37.58;;;11.40;99.90;;;;;;6210211;23;20032;-71
2022/10/14 03:20:05;;;;;;;132.63;37.47;;;11.50;99.90;;;;;;6211231;23;19997;-71
2022/10/14 03:22:32;;;;;;;153.05;40.13;;;11.50;99.90;;;;;;6210518;23;20009;-71
2022/10/14 03:24:57;;;;;;;127.10;39.25;;;11.50;99.90;;;;;;6210677;23;20008;-71
2022/10/14 03:27:23;;;;;;;115.85;39.63;;;11.50;99.90;;;;;;6210071;23;20068;-71
2022/10/14 03:29:49;;;;;;;133.00;38.40;;;11.50;99.90;;;;;;6210570;23;20000;-71
2022/10/14 03:32:14;;;;;;;128.70;40.60;;;11.50;99.90;;;;;;6211015;23;19996;-71
2022/10/14 03:34:40;;;;;;;114.70;38.90;;;11.50;99.90;;;;;;6210226;23;20008;-71
2022/10/14 03:37:06;;;;;;;130.40;40.45;;;11.50;99.90;;;;;;6210737;23;20032;-71
2022/10/14 03:39:32;;;;;;;133.13;39.60;;;11.60;99.90;;;;;;6209986;23;20435;-71
2022/10/14 03:41:57;;;;;;;144.77;40.97;;;11.60;99.90;;;;;;6210024;23;20044;-71
2022/10/14 03:44:23;;;;;;;138.63;41.08;;;;;;;;;;6210421;23;20001;-71
2022/10/14 03:46:49;;;;;;;133.50;40.35;;;11.60;99.90;;;;;;6210244;23;20004;-71
2022/10/14 03:49:14;;;;;;;134.32;41.17;;;11.70;99.90;;;;;;6210678;23;20322;-71
2022/10/14 03:51:40;;;;;;;159.40;39.38;;;11.60;99.90;;;;;;6183430;23;20044;-71
2022/10/14 03:54:06;;;;;;;192.98;44.08;;;11.70;99.90;;;;;;6210710;23;20001;-71
2022/10/14 03:56:31;;;;;;;144.32;46.03;;;11.50;99.90;;;;;;6210067;23;19996;-71
2022/10/14 03:58:57;;;;;;;158.35;45.50;;;11.60;99.90;;;;;;6210363;23;20075;-71
2022/10/14 04:01:22;;;;;;;168.38;43.05;;;11.60;99.90;;;;;;6210064;23;20008;-71
2022/10/14 04:03:49;;;;;;;158.00;45.45;;;11.70;99.90;;;;;;6210000;23;19992;-71
2022/10/14 04:06:15;;;;;;;200.13;49.03;;;11.50;99.90;;;;;;6209905;23;20000;-71
2022/10/14 04:08:41;;;;;;;182.00;51.75;;;11.70;99.90;;;;;;6210067;23;20548;-71
2022/10/14 04:11:07;;;;;;;159.23;49.28;;;11.70;99.90;;;;;;6209896;23;20472;-71
2022/10/14 04:13:33;;;;;;;158.85;46.55;;;11.60;99.90;;;;;;6209897;23;20046;-72
2022/10/14 04:16:06;;;;;;;174.77;47.85;;;11.80;99.90;;;;;;6209906;23;20072;-71
2022/10/14 04:18:33;;;;;;;155.48;48.70;;;11.70;99.90;;;;;;6209588;23;20005;-71
2022/10/14 04:21:00;;;;;;;162.80;47.70;;;11.70;99.90;;;;;;6209935;23;20442;-71
2022/10/14 04:23:26;;;;;;;178.07;51.83;;;11.80;99.90;;;;;;6209176;23;20016;-72
2022/10/14 04:25:51;;;;;;;150.32;45.65;;;11.50;99.90;;;;;;6209694;23;19996;-72
2022/10/14 04:28:17;;;;;;;192.20;47.55;;;11.80;99.90;;;;;;6210185;23;20083;-71
2022/10/14 04:30:42;;;;;;;191.43;47.17;;;11.80;99.90;;;;;;6209890;23;20011;-71
2022/10/14 04:33:08;;;;;;;152.85;46.88;;;11.80;99.90;;;;;;6210842;23;20028;-72
2022/10/14 04:35:33;;;;;;;295.77;59.97;;;11.90;99.90;;;;;;6210436;23;20011;-71
2022/10/14 04:37:59;;;;;;;223.68;53.90;;;11.90;99.90;;;;;;6209925;23;20123;-71
2022/10/14 04:40:25;;;;;;;178.73;51.15;;;12.00;99.90;;;;;;6209954;23;19997;-72
2022/10/14 04:42:57;;;;;;;180.55;52.78;;;11.90;99.90;;;;;;6210460;23;20070;-72
2022/10/14 04:45:22;;;;;;;184.13;53.40;;;11.90;99.90;;;;;;6209588;23;20079;-71
2022/10/14 04:47:48;;;;;;;165.57;49.33;;;11.90;99.90;;;;;;6210191;23;20062;-71
2022/10/14 04:50:14;;;;;;;150.27;45.30;;;12.00;99.90;;;;;;6210278;23;20493;-71
2022/10/14 04:52:40;;;;;;;166.52;48.17;;;11.90;99.90;;;;;;6210983;23;20032;-72
2022/10/14 04:55:06;;;;;;;172.52;48.17;;;12.00;99.90;;;;;;6212246;23;20076;-71
2022/10/14 04:57:32;;;;;;;172.63;46.97;;;12.00;99.90;;;;;;6211745;23;20004;-71
2022/10/14 04:59:57;;;;;;;182.18;51.78;;;12.10;99.90;;;;;;6212087;23;20350;-71
2022/10/14 05:02:23;;;;;;;173.85;48.75;;;11.90;99.90;;;;;;6211701;23;20032;-71
2022/10/14 05:04:48;;;;;;;181.60;51.55;;;11.90;99.90;;;;;;6211775;23;20001;-71
2022/10/14 05:07:14;;;;;;;170.32;48.95;;;12.00;99.90;;;;;;6211657;23;20047;-72
2022/10/14 05:09:39;;;;;;;168.82;48.28;;;11.90;99.90;;;;;;6211315;23;20015;-71
2022/10/14 05:12:05;;;;;;;176.27;47.70;;;12.10;99.90;;;;;;6212229;23;20028;-72
2022/10/14 05:14:30;;;;;;;152.38;46.25;;;12.10;99.90;;;;;;6211581;23;20000;-71
2022/10/14 05:16:57;;;;;;;172.82;47.55;;;;;;;;;;6211769;23;20110;-71
2022/10/14 05:19:22;;;;;;;156.63;47.92;;;12.10;99.90;;;;;;6211608;23;20001;-72
2022/10/14 05:21:48;;;;;;;161.90;48.40;;;12.20;99.90;;;;;;6211062;23;20330;-72
2022/10/14 05:24:13;;;;;;;149.77;48.92;;;12.20;99.90;;;;;;6212028;23;20039;-72
2022/10/14 05:26:39;;;;;;;158.48;50.17;;;12.20;99.90;;;;;;6211401;23;20005;-72
2022/10/14 05:29:04;;;;;;;207.18;60.67;;;12.20;99.90;;;;;;6211685;23;20070;-71
2022/10/14 05:31:30;;;;;;;180.02;53.38;;;12.30;99.90;;;;;;6211451;23;20280;-71
2022/10/14 05:33:55;;;;;;;148.07;49.92;;;12.20;99.90;;;;;;6211687;23;20076;-71
2022/10/14 05:36:21;;;;;;;144.00;51.75;;;12.30;99.90;;;;;;6210557;23;20466;-71
2022/10/14 05:38:47;;;;;;;142.35;48.78;;;12.30;99.90;;;;;;6211632;23;20001;-71
2022/10/14 05:41:12;;;;;;;153.77;51.25;;;12.30;99.90;;;;;;6211808;23;20054;-72
2022/10/14 05:43:38;;;;;;;150.25;49.58;;;12.00;99.90;;;;;;6210960;23;20021;-72
2022/10/14 05:46:04;;;;;;;127.00;50.53;;;12.30;99.90;;;;;;6211448;23;20092;-71
2022/10/14 05:48:31;;;;;;;126.28;48.90;;;12.40;99.90;;;;;;6211122;23;20031;-71
2022/10/14 05:51:00;;;;;;;137.73;52.42;;;12.40;99.90;;;;;;6211052;23;20009;-72
2022/10/14 05:53:25;;;;;;;130.00;49.83;;;12.40;99.90;;;;;;6211235;23;20012;-71
2022/10/14 05:55:51;;;;;;;109.72;46.95;;;12.50;99.90;;;;;;6211260;23;19997;-72
2022/10/14 05:58:16;;;;;;;100.65;44.28;;;12.40;99.90;;;;;;6211450;23;20035;-71
2022/10/14 06:00:42;;;;;;;100.28;43.88;;;12.50;99.90;;;;;;6210847;23;20055;-71
2022/10/14 06:03:10;;;;;;;101.03;44.45;;;12.60;99.90;;;;;;6210984;23;20009;-71
2022/10/14 06:05:36;;;;;;;86.43;41.33;;;12.50;99.90;;;;;;6210570;23;20025;-71
2022/10/14 06:08:01;;;;;;;86.72;42.50;;;12.60;99.90;;;;;;6211200;23;20441;-71
2022/10/14 06:10:27;;;;;;;84.68;41.50;;;12.70;99.90;;;;;;6211034;23;20001;-72
2022/10/14 06:12:52;;;;;;;97.75;42.45;;;12.70;99.90;;;;;;6211138;23;20008;-72
2022/10/14 06:15:18;;;;;;;85.45;40.88;;;12.70;99.90;;;;;;6211343;23;20004;-72
2022/10/14 06:17:44;;;;;;;81.28;37.15;;;12.70;99.90;;;;;;6210818;23;20011;-71
2022/10/14 06:20:09;;;;;;;71.70;36.63;;;12.80;99.90;;;;;;6210698;23;20302;-72
2022/10/14 06:22:35;;;;;;;83.90;40.45;;;12.80;99.90;;;;;;6210868;23;20027;-71
2022/10/14 06:25:01;;;;;;;77.20;39.08;;;12.80;99.90;;;;;;6184298;23;20004;-72
2022/10/14 06:27:27;;;;;;;78.55;36.88;;;12.70;99.90;;;;;;6211026;23;20413;-72
2022/10/14 06:29:52;;;;;;;70.43;36.47;;;13.20;99.90;;;;;;6210974;23;20413;-72
2022/10/14 06:32:18;;;;;;;67.93;36.10;;;12.80;99.90;;;;;;6184435;23;20028;-72
2022/10/14 06:34:43;;;;;;;97.70;43.25;;;12.90;99.90;;;;;;6209956;23;20001;-71
2022/10/14 06:37:08;;;;;;;74.57;38.47;;;12.80;99.90;;;;;;6211124;23;20340;-72
2022/10/14 06:39:34;;;;;;;67.15;35.58;;;13.00;99.90;;;;;;6210616;23;20113;-72
2022/10/14 06:42:01;;;;;;;66.13;33.58;;;12.90;99.90;;;;;;6210274;23;20000;-71
2022/10/14 06:44:27;;;;;;;71.13;36.72;;;13.00;99.90;;;;;;6210440;23;20305;-72
2022/10/14 06:46:52;;;;;;;79.25;37.00;;;12.90;99.90;;;;;;6210480;23;20047;-71
2022/10/14 06:49:18;;;;;;;71.78;35.00;;;13.00;99.90;;;;;;6210299;23;20012;-72
2022/10/14 06:51:43;;;;;;;62.60;33.78;;;13.00;99.90;;;;;;6210346;23;19997;-72
2022/10/14 06:54:09;;;;;;;68.97;35.40;;;13.10;99.90;;;;;;6210912;23;20005;-72
2022/10/14 06:56:34;;;;;;;71.90;35.55;;;13.10;99.90;;;;;;6210550;23;20004;-72
2022/10/14 06:59:00;;;;;;;73.68;34.67;;;13.10;99.90;;;;;;6210644;23;20007;-71
2022/10/14 07:01:26;;;;;;;80.68;35.03;;;13.10;99.90;;;;;;6210482;23;19996;-72
2022/10/14 07:03:51;;;;;;;74.70;35.90;;;13.10;99.90;;;;;;6209915;23;20438;-72
2022/10/14 07:06:17;;;;;;;72.63;34.65;;;13.20;99.90;;;;;;6183886;23;20016;-71
2022/10/14 07:08:42;;;;;;;73.05;33.80;;;13.20;99.90;;;;;;6210236;23;20129;-71
2022/10/14 07:11:08;;;;;;;76.90;35.88;;;13.20;99.90;;;;;;6210934;23;20080;-71
2022/10/14 07:13:34;;;;;;;74.82;34.30;;;13.20;99.90;;;;;;6210217;23;20130;-71
2022/10/14 07:15:59;;;;;;;73.82;33.85;;;13.20;99.90;;;;;;6210337;23;20124;-70
2022/10/14 07:18:25;;;;;;;67.38;30.60;;;13.30;99.90;;;;;;6209675;23;20070;-70
2022/10/14 07:20:51;;;;;;;57.38;30.20;;;13.30;99.90;;;;;;6209880;23;20023;-71
2022/10/14 07:23:17;;;;;;;53.78;30.30;;;13.30;99.90;;;;;;6209599;23;20009;-71
2022/10/14 07:25:43;;;;;;;75.90;34.17;;;13.40;99.90;;;;;;6209464;23;20096;-70
2022/10/14 07:28:08;;;;;;;61.20;30.23;;;13.40;99.90;;;;;;6210452;23;20111;-70
2022/10/14 07:30:34;;;;;;;59.83;29.85;;;13.30;99.90;;;;;;6209574;23;20004;-71
2022/10/14 07:32:59;;;;;;;63.03;29.27;;;13.50;99.90;;;;;;6209884;23;20425;-71
2022/10/14 07:35:25;;;;;;;57.15;26.70;;;13.90;99.90;;;;;;6209635;23;20001;-71
2022/10/14 07:37:52;;;;;;;56.85;28.23;;;13.60;99.90;;;;;;6209931;23;20026;-71
2022/10/14 07:40:18;;;;;;;47.45;25.70;;;13.60;99.90;;;;;;6210136;23;20256;-71
2022/10/14 07:42:44;;;;;;;51.78;26.92;;;14.90;99.90;;;;;;6182843;23;20426;-71
2022/10/14 07:45:14;;;;;;;50.92;25.52;;;13.70;99.90;;;;;;6210346;23;20019;-71
2022/10/14 07:47:41;;;;;;;44.60;24.65;;;13.70;99.90;;;;;;6209024;23;20036;-71
2022/10/14 07:50:07;;;;;;;43.15;24.45;;;13.60;99.90;;;;;;6209938;23;20549;-71
2022/10/14 07:52:33;;;;;;;39.78;23.50;;;13.80;99.90;;;;;;6209703;23;20012;-71
2022/10/14 07:54:58;;;;;;;44.58;25.83;;;13.70;99.90;;;;;;6209681;23;20294;-71
2022/10/14 07:57:24;;;;;;;51.47;27.23;;;13.70;99.90;;;;;;6209946;23;20009;-71
2022/10/14 07:59:51;;;;;;;38.58;23.15;;;14.90;99.90;;;;;;6209929;23;20418;-71
2022/10/14 08:02:17;;;;;;;43.45;24.00;;;13.80;99.90;;;;;;6209178;23;20005;-71
2022/10/14 08:04:42;;;;;;;42.63;23.63;;;13.80;99.90;;;;;;6210108;23;20001;-71
2022/10/14 08:07:08;;;;;;;45.20;24.33;;;13.90;99.90;;;;;;6210634;23;20003;-71
2022/10/14 08:09:35;;;;;;;43.92;25.35;;;14.00;99.90;;;;;;6209941;23;20019;-71
2022/10/14 08:12:01;;;;;;;44.47;24.65;;;14.00;99.90;;;;;;6210530;23;20028;-71
2022/10/14 08:14:27;;;;;;;44.97;24.10;;;14.10;99.90;;;;;;6210135;23;20004;-71
2022/10/14 08:16:52;;;;;;;34.75;22.88;;;14.10;99.90;;;;;;6210087;23;20322;-71
2022/10/14 08:19:18;;;;;;;42.38;25.08;;;14.00;99.90;;;;;;6210590;23;19997;-71
2022/10/14 08:21:43;;;;;;;48.20;25.77;;;14.10;99.90;;;;;;6210102;23;20001;-71
2022/10/14 08:24:09;;;;;;;39.00;23.45;;;14.10;99.90;;;;;;6210750;23;20004;-71
2022/10/14 08:26:47;;;;;;;36.75;23.63;;;14.00;99.90;;;;;;6211620;23;20000;-71
2022/10/14 08:29:13;;;;;;;41.35;24.48;;;14.20;99.90;;;;;;6212920;23;20005;-71
2022/10/14 08:31:38;;;;;;;37.97;23.60;;;14.10;99.90;;;;;;6211200;23;20032;-71
2022/10/14 08:34:04;;;;;;;33.72;23.13;;;14.30;99.90;;;;;;6212655;23;20000;-71
2022/10/14 08:36:30;;;;;;;36.90;24.92;;;14.30;99.90;;;;;;6212224;23;20067;-70
2022/10/14 08:38:55;;;;;;;36.45;24.30;;;14.30;99.90;;;;;;6212244;23;20083;-71
2022/10/14 08:41:38;;;;;;;44.10;27.95;;;14.40;99.90;;;;;;6212308;23;19997;-71
2022/10/14 08:44:23;;;;;;;34.45;23.25;;;14.40;99.90;;;;;;6212516;23;20004;-71
2022/10/14 08:46:51;;;;;;;35.30;23.20;;;14.40;99.90;;;;;;6211135;23;20043;-72
2022/10/14 08:49:29;;;;;;;31.10;21.35;;;14.40;99.90;;;;;;6212350;23;19997;-71
2022/10/14 08:52:00;;;;;;;30.52;22.00;;;14.50;99.90;;;;;;6211987;23;20027;-71
2022/10/14 08:54:43;;;;;;;34.00;23.98;;;14.40;99.90;;;;;;6211718;23;20008;-71
2022/10/14 08:57:21;;;;;;;30.67;21.27;;;14.50;99.90;;;;;;6212410;23;19997;-71
2022/10/14 08:59:47;;;;;;;32.50;20.85;;;14.50;99.90;;;;;;6211118;23;20095;-71
2022/10/14 09:02:28;;;;;;;31.83;23.58;;;14.50;99.90;;;;;;6211925;23;20011;-70
2022/10/14 09:04:55;;;;;;;26.33;20.20;;;14.60;99.90;;;;;;6211829;23;19997;-70
2022/10/14 09:07:21;;;;;;;27.00;20.40;;;14.50;99.90;;;;;;6209950;23;20001;-70
2022/10/14 09:09:52;;;;;;;27.75;20.02;;;14.50;99.90;;;;;;6209414;23;20001;-71
2022/10/14 09:12:25;;;;;;;24.90;19.88;;;14.60;99.90;;;;;;6210589;23;20005;-70
2022/10/14 09:15:08;;;;;;;26.38;20.17;;;14.70;99.90;;;;;;6210430;23;20454;-71
2022/10/14 09:17:41;;;;;;;28.38;20.13;;;14.70;99.90;;;;;;6211056;23;19997;-70
2022/10/14 09:20:07;;;;;;;31.98;21.55;;;14.60;99.90;;;;;;6211530;23;20004;-70
2022/10/14 09:22:33;;;;;;;23.33;19.20;;;14.60;99.90;;;;;;6211392;23;20005;-70
2022/10/14 09:25:00;;;;;;;22.02;18.20;;;14.60;99.90;;;;;;6211883;23;20054;-70
2022/10/14 09:27:27;;;;;;;26.00;20.98;;;14.60;99.90;;;;;;6212096;23;19996;-71
2022/10/14 09:30:00;;;;;;;26.05;20.00;;;14.80;99.90;;;;;;6211328;23;20103;-70
2022/10/14 09:32:34;;;;;;;24.83;18.65;;;14.70;99.90;;;;;;6211661;23;20446;-70
2022/10/14 09:35:01;;;;;;;20.55;17.33;;;15.10;99.90;;;;;;6211763;23;19997;-71
2022/10/14 09:37:34;;;;;;;27.55;20.85;;;14.80;99.90;;;;;;6211648;23;20418;-71
2022/10/14 09:40:21;;;;;;;23.27;18.55;;;14.90;99.90;;;;;;6211557;23;20062;-71
2022/10/14 09:43:02;;;;;;;25.42;20.77;;;15.00;99.90;;;;;;6184703;23;20016;-71
2022/10/14 09:45:45;;;;;;;24.48;19.70;;;15.00;99.90;;;;;;6211228;23;20489;-70
2022/10/14 09:48:36;;;;;;;24.13;19.25;;;15.10;99.90;;;;;;6211825;23;20008;-71
2022/10/14 09:51:04;;;;;;;26.85;21.15;;;15.20;99.90;;;;;;6211741;23;20001;-70
2022/10/14 09:53:53;;;;;;;25.80;20.05;;;15.30;99.90;;;;;;6211606;23;20001;-71
2022/10/14 09:56:37;;;;;;;20.30;18.00;;;15.30;99.90;;;;;;6210619;23;20067;-71
2022/10/14 09:59:16;;;;;;;22.50;18.80;;;15.40;99.90;;;;;;6211021;23;20011;-71
2022/10/14 10:01:49;;;;;;;24.20;19.38;;;15.40;99.90;;;;;;6211159;23;19996;-71
2022/10/14 10:04:36;;;;;;;21.83;19.58;;;15.40;99.90;;;;;;6211112;23;20003;-71
2022/10/14 10:07:20;;;;;;;20.60;18.45;;;15.40;99.90;;;;;;6211638;23;19993;-71
2022/10/14 10:09:53;;;;;;;19.52;17.38;;;15.50;99.90;;;;;;6211478;23;19997;-71
2022/10/14 10:12:30;;;;;;;22.98;19.10;;;15.50;99.90;;;;;;6184237;23;20015;-70
2022/10/14 10:15:05;;;;;;;21.98;19.70;;;15.50;99.90;;;;;;6211579;23;20004;-71
2022/10/14 10:17:34;;;;;;;22.10;18.30;;;15.60;99.90;;;;;;6211401;23;20005;-71
2022/10/14 10:20:27;;;;;;;19.15;17.25;;;15.50;99.90;;;;;;6211038;23;20004;-71
2022/10/14 10:22:56;;;;;;;21.20;18.02;;;15.40;99.90;;;;;;6210859;23;20433;-70
2022/10/14 10:25:25;;;;;;;20.17;18.08;;;15.60;99.90;;;;;;6211584;23;20064;-71
2022/10/14 10:27:53;;;;;;;20.65;17.67;;;15.50;99.90;;;;;;6210617;23;20051;-71
2022/10/14 10:30:28;;;;;;;20.08;18.23;;;15.70;99.90;;;;;;6211560;23;20036;-70
2022/10/14 10:33:12;;;;;;;17.95;16.08;;;15.50;99.90;;;;;;6211146;23;20072;-71
2022/10/14 10:35:50;;;;;;;20.00;17.90;;;15.50;99.90;;;;;;6211018;23;20001;-71
2022/10/14 10:38:29;;;;;;;18.85;17.05;;;15.60;99.90;;;;;;6211341;23;20004;-71
2022/10/14 10:40:55;;;;;;;19.25;17.40;;;15.70;99.90;;;;;;6210596;23;20032;-71
2022/10/14 10:43:58;;;;;;;19.90;17.38;;;15.90;99.90;;;;;;6211303;23;19997;-71
2022/10/14 10:46:53;;;;;;;17.30;15.48;;;16.00;99.90;;;;;;6184438;23;20023;-71
2022/10/14 10:49:49;;;;;;;17.92;16.13;;;16.10;99.90;;;;;;6211192;23;20042;-71
2022/10/14 10:52:43;;;;;;;18.13;16.33;;;16.10;99.90;;;;;;6211187;23;20096;-71
2022/10/14 10:55:16;;;;;;;18.75;16.75;;;16.10;99.90;;;;;;6173770;23;20072;-71
2022/10/14 10:58:09;;;;;;;17.45;15.75;;;16.10;99.90;;;;;;6210407;23;20504;-71
2022/10/14 11:00:57;;;;;;;19.67;17.70;;;16.30;99.90;;;;;;6211096;23;20055;-71
2022/10/14 11:04:03;;;;;;;17.50;15.80;;;16.30;99.90;;;;;;6211021;23;20083;-70
2022/10/14 11:13:43;;;;;;;17.77;15.60;;;16.30;99.90;;;;;;6210915;23;20146;-71
2022/10/14 11:16:20;;;;;;;16.40;14.63;;;16.10;99.90;;;;;;6185228;23;20015;-70
2022/10/14 11:19:12;;;;;;;16.92;15.07;;;16.10;99.90;;;;;;6210652;23;20449;-71
2022/10/14 11:22:10;;;;;;;16.17;14.48;;;16.20;99.90;;;;;;6210650;23;20011;-71
2022/10/14 11:24:53;;;;;;;16.65;14.38;;;16.10;99.90;;;;;;6210443;23;20031;-70
2022/10/14 11:27:38;;;;;;;15.98;14.40;;;16.10;99.90;;;;;;6211191;23;20115;-71
2022/10/14 11:30:22;;;;;;;16.20;14.60;;;16.10;99.90;;;;;;6210763;23;19992;-70
2022/10/14 11:32:53;;;;;;;;;;;16.00;99.90;;;;;;6211250;23;20007;-71
2022/10/14 11:35:47;;;;;;;13.93;12.52;;;16.00;99.90;;;;;;6210951;23;20003;-71
2022/10/14 11:38:33;;;;;;;14.68;13.32;;;16.00;99.90;;;;;;6211146;23;20391;-71
2022/10/14 11:41:25;;;;;;;13.35;11.95;;;16.00;99.90;;;;;;6210419;23;19996;-70
2022/10/14 11:44:05;;;;;;;13.85;12.45;;;16.20;99.90;;;;;;6186544;23;20035;-70
2022/10/14 11:46:35;;;;;;;14.68;13.38;;;16.50;99.90;;;;;;6210694;23;20012;-72
2022/10/14 11:49:03;;;;;;;17.33;13.80;;;16.00;99.90;;;;;;6210210;23;20142;-70
2022/10/14 11:51:41;;;;;;;13.93;12.45;;;16.00;99.90;;;;;;6210981;23;20334;-70
2022/10/14 11:54:32;;;;;;;13.48;11.93;;;16.10;99.90;;;;;;6209940;23;20005;-71
2022/10/14 11:57:23;;;;;;;14.02;12.52;;;16.10;99.90;;;;;;6183864;23;20000;-71
2022/10/14 11:59:58;;;;;;;14.13;12.45;;;16.10;99.90;;;;;;6210286;23;20096;-71
2022/10/14 12:02:50;;;;;;;13.38;12.20;;;17.60;99.90;;;;;;6211853;23;20350;-71
2022/10/14 12:05:41;;;;;;;11.90;10.65;;;16.20;99.90;;;;;;6212362;23;20340;-70
2022/10/14 12:08:25;;;;;;;13.27;12.02;;;16.20;99.90;;;;;;6212078;23;20047;-70
2022/10/14 12:10:53;;;;;;;;;;;16.20;99.90;;;;;;6212584;23;19992;-70
2022/10/14 12:13:27;;;;;;;12.52;10.85;;;16.10;99.90;;;;;;6212413;23;20258;-70
2022/10/14 12:15:53;;;;;;;11.73;9.95;;;17.10;99.90;;;;;;6211709;23;20028;-70
2022/10/14 12:18:18;;;;;;;11.60;10.60;;;16.10;99.90;;;;;;6212510;23;20244;-68
2022/10/14 12:21:13;;;;;;;10.98;9.88;;;16.00;99.90;;;;;;6211653;23;20028;-69
2022/10/14 12:23:45;;;;;;;9.40;8.60;;;16.10;99.90;;;;;;6211756;23;20005;-68
2022/10/14 12:26:23;;;;;;;9.13;8.30;;;16.10;99.90;;;;;;6212484;23;20089;-69
2022/10/14 12:28:50;;;;;;;10.70;7.75;;;16.10;99.90;;;;;;6211854;23;20441;-69
2022/10/14 12:31:35;;;;;;;8.60;7.70;;;16.00;99.90;;;;;;6212351;23;20482;-69
2022/10/14 12:34:09;;;;;;;8.63;7.72;;;16.20;99.90;;;;;;6210725;23;20055;-69
2022/10/14 12:36:36;;;;;;;8.18;7.47;;;16.20;99.90;;;;;;6211947;23;20072;-70
2022/10/14 12:39:17;;;;;;;8.02;7.30;;;16.20;99.90;;;;;;6212095;23;20027;-70
2022/10/14 12:41:59;;;;;;;8.45;7.65;;;16.20;99.90;;;;;;6212042;23;19997;-70
2022/10/14 12:44:57;;;;;;;8.55;7.57;;;16.40;99.90;;;;;;6212092;23;20000;-69
2022/10/14 12:47:31;;;;;;;8.57;7.75;;;16.40;99.90;;;;;;6195036;23;20015;-69
2022/10/14 12:50:02;;;;;;;7.05;6.45;;;16.40;99.90;;;;;;6212117;23;20000;-70
2022/10/14 12:52:34;;;;;;;7.47;6.78;;;16.40;99.90;;;;;;6211050;23;20103;-70